Time;durP1;ratioP1;P1;durP2;ratioP2;P2;SDS_P1;SDS_P2;PMS_P1;PMS_P2;Temp;Humidity;BMP_temperature;BMP_pressure;BME280_temperature;BME280_humidity;BME280_pressure;Samples;Min_cycle;Max_cycle;Signal;HPM_P1;HPM_P2
2022/04/23 00:04:22;;;;;;;10.32;9.32;;;;;;;13.16;50.72;98968.66;10236199;28;20115;-65
2022/04/23 00:09:23;;;;;;;11.18;10.18;;;;;;;13.03;51.42;98969.19;10236250;28;20393;-63
2022/04/23 00:14:26;;;;;;;12.25;11.15;;;;;;;13.08;50.92;98969.50;10242277;28;20772;-64
2022/04/23 00:19:27;;;;;;;12.02;10.93;;;;;;;13.01;51.67;98969.34;10244409;28;20051;-64
2022/04/23 00:24:29;;;;;;;11.95;10.85;;;;;;;12.99;50.99;98967.88;10242754;28;20138;-64
2022/04/23 00:29:30;;;;;;;11.95;10.85;;;;;;;12.87;50.98;98962.06;10242078;28;20051;-64
2022/04/23 00:34:32;;;;;;;13.20;11.90;;;;;;;12.87;51.78;98970.06;10241785;28;20126;-64
2022/04/23 00:39:33;;;;;;;13.68;12.38;;;;;;;12.73;51.91;98959.06;10237535;28;20059;-67
2022/04/23 00:44:35;;;;;;;13.32;12.13;;;;;;;12.76;52.69;98965.91;10239202;28;20762;-63
2022/04/23 00:49:37;;;;;;;13.45;12.05;;;;;;;12.75;52.59;98971.41;10238581;28;20051;-64
2022/04/23 00:54:39;;;;;;;16.20;13.35;;;;;;;12.69;52.29;98968.41;10241433;28;20122;-64
2022/04/23 00:59:41;;;;;;;12.90;11.70;;;;;;;12.68;52.92;98965.91;10248682;28;20133;-65
2022/04/23 01:04:43;;;;;;;13.77;12.48;;;;;;;12.63;52.98;98954.91;10244651;28;20137;-64
2022/04/23 01:09:44;;;;;;;13.65;12.25;;;;;;;12.63;53.67;98963.75;10239979;28;20127;-64
2022/04/23 01:14:59;;;;;;;14.02;12.63;;;;;;;12.65;53.07;98967.06;10238347;28;20455;-65
2022/04/23 01:20:12;;;;;;;14.02;12.50;;;;;;;12.61;53.42;98955.09;10243357;28;20090;-64
2022/04/23 01:25:14;;;;;;;12.95;11.75;;;;;;;12.54;53.81;98970.91;10240047;28;20130;-65
2022/04/23 01:30:16;;;;;;;12.07;10.98;;;;;;;12.46;54.06;98957.59;10235362;28;20138;-64
2022/04/23 01:35:18;;;;;;;13.55;12.35;;;;;;;12.45;54.05;98949.75;10239886;28;20055;-64
2022/04/23 01:40:19;;;;;;;13.90;12.60;;;;;;;12.45;54.07;98949.75;10234013;28;20051;-65
2022/04/23 01:45:21;;;;;;;13.63;12.23;;;;;;;12.38;54.22;98950.44;10234566;28;20050;-65
2022/04/23 01:50:22;;;;;;;14.05;12.57;;;;;;;12.35;54.41;98952.56;10233308;28;20055;-64
2022/04/23 01:55:24;;;;;;;14.52;13.07;;;;;;;12.40;54.51;98960.06;10230129;28;20494;-65
2022/04/23 02:00:26;;;;;;;17.50;13.07;;;;;;;12.35;54.33;98968.59;10238424;28;20813;-64
2022/04/23 02:05:27;;;;;;;13.98;12.68;;;;;;;12.25;55.14;98954.56;10234075;28;20055;-64
2022/04/23 02:10:29;;;;;;;14.38;12.88;;;;;;;12.29;55.36;98969.25;10242844;28;20621;-62
2022/04/23 02:15:30;;;;;;;13.75;12.55;;;;;;;12.24;54.43;98961.75;10231982;28;20134;-64
2022/04/23 02:20:32;;;;;;;15.07;13.68;;;;;;;12.18;55.76;98959.75;10231352;28;20057;-64
2022/04/23 02:25:34;;;;;;;14.00;12.70;;;;;;;12.16;55.57;98961.72;10226387;28;20058;-63
2022/04/23 02:30:36;;;;;;;14.05;12.65;;;;;;;12.05;55.87;98951.41;10232643;28;20054;-64
2022/04/23 02:35:39;;;;;;;14.77;13.35;;;;;;;12.08;55.92;98964.41;10231049;28;20065;-65
2022/04/23 02:40:41;;;;;;;14.13;12.93;;;;;;;12.11;56.22;98966.75;10233824;28;21536;-61
2022/04/23 02:45:42;;;;;;;13.98;12.65;;;;;;;12.03;56.07;98960.38;10231103;28;20062;-63
2022/04/23 02:50:44;;;;;;;14.05;12.77;;;;;;;11.99;56.27;98959.06;10231574;28;20051;-62
2022/04/23 02:55:46;;;;;;;13.93;12.70;;;;;;;11.92;56.33;98952.69;10233291;28;20468;-63
2022/04/23 03:00:48;;;;;;;14.07;12.77;;;;;;;11.99;56.74;98960.88;10232648;28;20142;-62
2022/04/23 03:05:53;;;;;;;14.25;12.95;;;;;;;11.96;56.62;98962.03;10241795;28;20047;-63
2022/04/23 03:10:54;;;;;;;14.32;12.93;;;;;;;11.91;56.89;98961.66;10238616;28;20713;-63
2022/04/23 03:15:56;;;;;;;14.15;12.77;;;;;;;11.88;57.41;98963.84;10235544;28;20043;-64
2022/04/23 03:20:58;;;;;;;15.77;14.18;;;;;;;11.79;57.07;98960.31;10238320;28;20066;-63
2022/04/23 03:25:59;;;;;;;14.82;13.38;;;;;;;11.89;57.78;98970.81;10237437;28;20062;-62
2022/04/23 03:31:02;;;;;;;13.45;12.15;;;;;;;11.90;57.03;98970.66;10231609;28;20048;-62
2022/04/23 03:36:04;;;;;;;14.55;13.02;;;;;;;11.81;58.09;98976.97;10236997;28;20043;-63
2022/04/23 03:41:06;;;;;;;16.08;14.13;;;;;;;11.82;58.12;98978.66;10240190;28;20055;-64
2022/04/23 03:46:07;;;;;;;13.48;12.27;;;;;;;11.69;58.05;98955.13;10236462;28;20061;-63
2022/04/23 03:51:09;;;;;;;13.80;12.40;;;;;;;11.86;57.92;98977.34;10239219;28;20063;-64
2022/04/23 03:56:10;;;;;;;12.52;11.30;;;;;;;11.77;58.20;98962.28;10238854;28;20259;-63
2022/04/23 04:01:11;;;;;;;13.23;11.88;;;;;;;11.87;59.02;98984.31;10233910;28;20051;-63
2022/04/23 04:06:13;;;;;;;12.57;11.27;;;;;;;11.83;58.68;98972.34;10232062;28;20722;-63
2022/04/23 04:11:14;;;;;;;12.10;10.90;;;;;;;11.90;58.36;98989.31;10233269;28;20055;-63
2022/04/23 04:16:17;;;;;;;11.50;10.40;;;;;;;11.85;58.25;98983.66;10235467;28;20061;-64
2022/04/23 04:21:20;;;;;;;11.05;9.77;;;;;;;11.83;58.97;98983.00;10237954;28;20191;-62
2022/04/23 04:26:21;;;;;;;11.73;10.63;;;;;;;11.79;58.79;98981.66;10237429;28;20602;-63
2022/04/23 04:36:43;;;;;;;11.48;10.38;;;;;;;11.85;58.93;98991.66;10238123;28;20050;-63
2022/04/23 04:41:46;;;;;;;13.38;12.18;;;;;;;11.84;58.68;98984.66;10237917;28;20690;-63
2022/04/23 04:46:48;;;;;;;11.98;10.88;;;;;;;11.78;59.49;98974.63;10243685;28;20173;-63
2022/04/23 04:51:50;;;;;;;11.65;10.55;;;;;;;11.84;58.60;98988.16;10243745;28;20057;-63
2022/04/23 04:56:53;;;;;;;12.43;11.32;;;;;;;11.92;59.15;98994.50;10244072;28;20053;-62
2022/04/23 05:01:54;;;;;;;11.77;10.77;;;;;;;11.96;58.75;98988.69;10242404;28;20051;-63
2022/04/23 05:06:56;;;;;;;11.57;10.48;;;;;;;11.97;58.89;98995.72;10242052;28;20059;-63
2022/04/23 05:11:57;;;;;;;11.15;10.13;;;;;;;11.98;58.81;98986.72;10237724;28;20090;-64
2022/04/23 05:16:58;;;;;;;10.18;9.27;;;;;;;12.11;58.87;98996.06;10234982;28;20098;-63
2022/04/23 05:22:00;;;;;;;10.00;9.05;;;;;;;12.17;58.52;98996.28;10234139;28;20732;-64
2022/04/23 05:27:01;;;;;;;8.95;8.05;;;;;;;12.24;58.34;98991.09;10226438;28;20050;-63
2022/04/23 05:32:03;;;;;;;9.00;8.20;;;;;;;12.26;58.37;98989.09;10217827;28;20086;-64
2022/04/23 05:37:06;;;;;;;8.80;8.00;;;;;;;12.27;58.25;98987.28;10213849;28;20054;-64
2022/04/23 05:42:08;;;;;;;9.93;9.02;;;;;;;12.29;58.05;98988.75;10216199;28;20689;-64
2022/04/23 05:47:09;;;;;;;9.80;9.00;;;;;;;12.28;58.40;98980.91;10214904;28;20146;-63
2022/04/23 05:52:10;;;;;;;9.80;9.00;;;;;;;12.40;58.08;98989.44;10212835;28;20058;-64
2022/04/23 05:57:12;;;;;;;9.35;8.25;;;;;;;12.60;57.55;99001.47;10219330;28;20118;-64
2022/04/23 06:02:14;;;;;;;9.20;8.35;;;;;;;12.65;57.15;98960.91;10248288;28;20111;-64
2022/04/23 06:07:16;;;;;;;10.18;9.18;;;;;;;12.82;56.68;98993.75;10232866;28;20059;-65
2022/04/23 06:12:18;;;;;;;10.30;8.68;;;;;;;13.04;56.36;99011.75;10222526;28;20055;-66
2022/04/23 06:17:39;;;;;;;9.98;9.02;;;;;;;13.18;56.50;99004.03;10217537;28;20529;-64
2022/04/23 06:22:41;;;;;;;10.52;8.80;;;;;;;13.29;55.46;98990.31;10215283;28;20051;-64
2022/04/23 06:27:42;;;;;;;8.65;7.75;;;;;;;13.45;54.63;98994.81;10212950;28;20051;-64
2022/04/23 06:32:44;;;;;;;10.10;9.10;;;;;;;13.43;55.20;99002.97;10211248;28;20059;-63
2022/04/23 06:37:47;;;;;;;10.20;9.27;;;;;;;13.54;55.17;99011.63;10217672;28;20150;-63
2022/04/23 06:42:48;;;;;;;13.50;12.25;;;;;;;13.64;54.83;99004.25;10220435;28;20054;-63
2022/04/23 06:48:04;;;;;;;10.73;9.63;;;;;;;13.71;54.80;99007.09;10219688;28;20055;-64
2022/04/23 06:53:06;;;;;;;9.93;9.02;;;;;;;13.94;54.73;98993.75;10221224;28;20054;-65
2022/04/23 06:58:07;;;;;;;9.48;8.68;;;;;;;14.27;54.44;99015.78;10219290;28;20062;-65
2022/04/23 07:03:08;;;;;;;8.52;7.63;;;;;;;14.39;53.13;99008.16;10216138;28;20506;-63
2022/04/23 07:08:10;;;;;;;9.13;8.25;;;;;;;14.54;53.08;99002.03;10218954;28;20054;-63
2022/04/23 07:13:14;;;;;;;7.68;6.97;;;;;;;14.75;52.54;98996.03;10218975;28;20047;-63
2022/04/23 07:18:15;;;;;;;;;;;;;;;14.92;51.19;99020.81;10236378;28;20051;-63
2022/04/23 07:28:37;;;;;;;8.48;6.20;;;;;;;14.95;50.53;99018.63;10217081;28;20051;-62
2022/04/23 07:38:59;;;;;;;6.20;5.70;;;;;;;15.18;49.89;99007.84;10219847;28;20054;-64
2022/04/23 07:44:00;;;;;;;5.55;5.05;;;;;;;15.41;49.42;99000.72;10217493;28;20055;-63
2022/04/23 07:49:02;;;;;;;5.50;5.10;;;;;;;15.30;49.37;98993.97;10217867;28;20059;-65
2022/04/23 07:54:03;;;;;;;4.80;4.40;;;;;;;15.47;49.01;99014.22;10218887;28;20125;-63
2022/04/23 07:59:05;;;;;;;4.70;4.30;;;;;;;15.69;47.88;99014.31;10211750;28;20658;-63
2022/04/23 08:04:06;;;;;;;4.97;4.47;;;;;;;16.01;46.85;99017.59;10227827;28;20061;-63
2022/04/23 08:09:08;;;;;;;6.55;3.75;;;;;;;15.94;46.61;99008.63;10215984;28;20051;-63
2022/04/23 08:14:09;;;;;;;4.05;3.65;;;;;;;16.01;47.37;99012.22;10217749;28;20062;-63
2022/04/23 08:19:11;;;;;;;4.55;3.55;;;;;;;15.94;47.62;99008.63;10220998;28;20077;-64
2022/04/23 08:24:12;;;;;;;3.95;3.55;;;;;;;16.23;46.72;99021.16;10215093;28;20069;-63
2022/04/23 08:34:34;;;;;;;5.13;4.63;;;;;;;16.67;44.87;99003.19;10216455;28;20055;-64
2022/04/23 08:39:36;;;;;;;4.60;4.20;;;;;;;16.71;45.11;98999.91;10218672;28;20064;-64
2022/04/23 08:44:37;;;;;;;4.45;3.72;;;;;;;16.70;45.26;99000.09;10213996;28;20134;-66
2022/04/23 08:49:40;;;;;;;4.22;3.83;;;;;;;16.83;44.87;98997.53;10217910;28;20062;-63
2022/04/23 08:54:43;;;;;;;3.60;3.30;;;;;;;16.79;44.03;98999.75;10216052;28;20140;-64
2022/04/23 08:59:48;;;;;;;4.25;3.85;;;;;;;16.68;44.49;98999.44;10217068;28;20047;-63
2022/04/23 09:04:50;;;;;;;7.68;3.08;;;;;;;16.70;44.46;98984.00;10218375;28;20679;-64
2022/04/23 09:09:54;;;;;;;3.70;3.40;;;;;;;17.35;43.44;98990.03;10215592;28;20055;-63
2022/04/23 09:26:15;;;;;;;5.05;4.65;;;;;;;18.45;40.65;98987.34;10212635;28;20077;-66
2022/04/23 09:31:16;;;;;;;5.28;4.15;;;;;;;18.65;40.54;98984.66;10213111;28;20051;-63
2022/04/23 09:36:19;;;;;;;6.07;4.72;;;;;;;19.03;39.32;98973.25;10214594;28;20070;-64
2022/04/23 09:41:30;;;;;;;4.97;4.57;;;;;;;19.04;39.47;98974.91;10213135;28;20786;-65
2022/04/23 09:46:43;;;;;;;5.20;4.80;;;;;;;19.87;37.77;98973.41;10219360;28;20056;-64
2022/04/23 09:52:09;;;;;;;4.97;4.50;;;;;;;19.78;38.09;98963.91;10212420;28;20055;-63
2022/04/23 09:57:11;;;;;;;4.90;4.50;;;;;;;19.59;38.21;98963.78;10213537;28;20058;-63
2022/04/23 10:02:19;;;;;;;6.68;5.30;;;;;;;18.96;38.78;98961.66;10201216;28;20788;-63
2022/04/23 10:07:24;;;;;;;6.05;5.45;;;;;;;18.68;39.48;98959.97;10211956;28;20106;-63
2022/04/23 10:12:32;;;;;;;5.22;4.70;;;;;;;18.96;39.04;98961.66;10213329;28;20806;-63
2022/04/23 10:17:35;;;;;;;5.65;5.07;;;;;;;18.80;38.70;98973.66;10212435;28;20055;-63
2022/04/23 10:22:57;;;;;;;5.10;4.70;;;;;;;18.42;39.69;98970.75;10210559;28;20043;-64
2022/04/23 10:27:59;;;;;;;6.50;5.90;;;;;;;17.79;40.27;98963.72;10244359;28;20054;-64
2022/04/23 10:33:25;;;;;;;6.22;5.72;;;;;;;17.62;40.92;98980.22;10219069;28;20065;-63
2022/04/23 10:38:27;;;;;;;7.07;6.22;;;;;;;17.47;41.97;98979.53;10214114;28;20077;-62
2022/04/23 10:43:28;;;;;;;8.05;6.85;;;;;;;17.38;42.48;98975.38;10213200;28;20062;-63
2022/04/23 10:48:30;;;;;;;8.45;7.60;;;;;;;17.46;42.25;98972.53;10212123;28;20066;-63
2022/04/23 10:53:37;;;;;;;7.57;6.57;;;;;;;17.20;43.01;98974.00;10206406;28;20061;-65
2022/04/23 10:58:40;;;;;;;7.97;7.20;;;;;;;17.33;43.03;98967.91;10202331;28;20174;-66
2022/04/23 11:03:43;;;;;;;7.38;6.72;;;;;;;17.36;42.58;98961.28;10212792;28;20061;-65
2022/04/23 11:14:49;;;;;;;8.63;7.85;;;;;;;17.13;43.07;98962.41;10211547;28;20055;-64
2022/04/23 11:19:54;;;;;;;9.80;8.90;;;;;;;16.98;43.70;98959.00;10211789;28;20606;-65
2022/04/23 11:24:57;;;;;;;10.32;9.27;;;;;;;16.77;43.90;98948.06;10217801;28;20050;-65
2022/04/23 11:29:58;;;;;;;10.15;8.48;;;;;;;17.06;43.76;98950.78;10216163;28;20047;-66
2022/04/23 11:35:03;;;;;;;9.65;8.65;;;;;;;17.34;42.83;98936.44;10216559;28;20051;-66
2022/04/23 11:40:06;;;;;;;10.25;9.07;;;;;;;17.66;42.74;98938.44;10216978;28;20667;-65
2022/04/23 11:45:09;;;;;;;12.17;10.97;;;;;;;17.44;42.56;98939.59;10219685;28;21601;-65
2022/04/23 11:50:16;;;;;;;10.47;9.53;;;;;;;17.11;43.37;98924.13;10218088;28;20057;-63
2022/04/23 11:55:23;;;;;;;11.27;10.18;;;;;;;17.04;44.11;98920.56;10217036;28;20133;-65
2022/04/23 12:00:26;;;;;;;12.00;9.32;;;;;;;17.18;44.27;98933.06;10218155;28;20640;-62
2022/04/23 12:05:32;;;;;;;9.50;8.50;;;;;;;17.42;43.51;98928.22;10218508;28;20043;-62
2022/04/23 12:10:33;;;;;;;10.38;9.40;;;;;;;17.31;43.96;98926.94;10218118;28;20081;-63
2022/04/23 12:15:45;;;;;;;10.07;8.98;;;;;;;17.48;43.93;98922.84;10218135;28;20541;-62
2022/04/23 12:20:46;;;;;;;15.57;13.98;;;;;;;17.34;43.85;98915.78;10219061;28;20055;-63
2022/04/23 12:26:09;;;;;;;13.10;11.70;;;;;;;17.12;45.15;98917.72;10216979;28;20539;-61
2022/04/23 12:41:57;;;;;;;13.65;12.30;;;;;;;16.88;45.62;98906.41;10216634;28;20218;-63
2022/04/23 12:47:00;;;;;;;12.68;11.30;;;;;;;16.94;45.50;98896.75;10218224;28;20146;-62
2022/04/23 12:52:12;;;;;;;13.60;12.30;;;;;;;16.76;45.63;98898.03;10219851;28;20047;-63
2022/04/23 12:57:17;;;;;;;13.50;11.88;;;;;;;16.75;45.82;98898.25;10228175;28;20051;-64
2022/04/23 13:02:18;;;;;;;12.75;11.45;;;;;;;16.60;45.89;98866.97;10217891;28;20170;-62
2022/04/23 13:12:40;;;;;;;14.20;12.52;;;;;;;16.86;45.40;98870.84;10219291;28;20520;-65
2022/04/23 13:17:42;;;;;;;11.45;10.35;;;;;;;17.34;44.62;98882.66;10217796;28;20058;-67
2022/04/23 13:22:44;;;;;;;13.05;11.80;;;;;;;17.29;44.22;98859.91;10218258;28;20800;-66
2022/04/23 13:27:49;;;;;;;11.20;10.10;;;;;;;17.18;44.77;98854.28;10235971;28;20054;-64
2022/04/23 13:32:50;;;;;;;15.23;13.73;;;;;;;17.16;44.45;98859.00;10213474;28;20049;-64
2022/04/23 13:37:51;;;;;;;12.32;11.13;;;;;;;17.28;44.66;98863.63;10218141;28;20055;-65
2022/04/23 13:42:53;;;;;;;11.10;10.10;;;;;;;17.39;44.49;98859.50;10216455;28;20109;-66
2022/04/23 13:47:54;;;;;;;13.13;11.82;;;;;;;17.34;44.58;98861.13;10210796;28;20059;-67
2022/04/23 13:52:55;;;;;;;11.57;10.55;;;;;;;17.23;44.03;98855.31;10211505;28;20116;-64
2022/04/23 13:57:57;;;;;;;11.45;10.25;;;;;;;17.39;43.33;98837.19;10214153;28;21264;-63
2022/04/23 14:13:39;;;;;;;11.25;10.00;;;;;;;17.58;42.74;98822.09;10212502;28;21270;-69
2022/04/23 14:18:40;;;;;;;10.80;9.73;;;;;;;17.43;43.01;98827.66;10214417;28;20058;-64
2022/04/23 14:23:42;;;;;;;11.18;10.18;;;;;;;17.39;43.31;98823.72;10215307;28;20197;-64
2022/04/23 14:28:43;;;;;;;11.38;10.30;;;;;;;17.39;43.93;98804.91;10207626;28;20125;-64
2022/04/23 14:33:44;;;;;;;12.50;11.30;;;;;;;17.33;44.04;98784.19;10197569;28;20737;-65
2022/04/23 14:38:46;;;;;;;12.70;11.40;;;;;;;17.41;44.02;98786.69;10209805;28;20055;-67
2022/04/23 14:43:49;;;;;;;11.50;10.50;;;;;;;17.60;43.63;98785.88;10211924;28;20427;-66
2022/04/23 14:48:50;;;;;;;12.07;10.82;;;;;;;17.80;42.69;98790.47;10213855;28;20129;-65
2022/04/23 14:53:52;;;;;;;11.38;10.32;;;;;;;17.94;42.64;98786.78;10205487;28;20078;-67
2022/04/23 14:58:53;;;;;;;11.82;10.70;;;;;;;18.06;42.26;98781.59;10213930;28;20138;-64
2022/04/23 15:03:54;;;;;;;11.05;9.85;;;;;;;18.19;42.03;98773.53;10221017;28;20065;-65
2022/04/23 15:08:56;;;;;;;10.13;9.23;;;;;;;18.25;41.44;98771.00;10217247;28;20055;-64
2022/04/23 15:13:58;;;;;;;11.20;10.10;;;;;;;18.47;41.04;98772.41;10223373;28;20055;-64
2022/04/23 15:18:59;;;;;;;10.20;9.20;;;;;;;18.46;40.30;98764.53;10221924;28;20065;-65
2022/04/23 15:24:01;;;;;;;11.13;9.98;;;;;;;18.34;40.67;98758.97;10216082;28;20951;-64
2022/04/23 15:29:02;;;;;;;11.05;9.95;;;;;;;18.29;41.23;98754.22;10219807;28;20051;-65
2022/04/23 15:34:04;;;;;;;10.05;9.13;;;;;;;18.38;41.18;98750.25;10223666;28;20065;-64
2022/04/23 15:39:06;;;;;;;10.10;9.20;;;;;;;18.44;40.79;98737.00;10225744;28;20065;-65
2022/04/23 15:44:08;;;;;;;9.32;8.43;;;;;;;18.40;40.39;98733.06;10219853;28;21041;-65
2022/04/23 15:49:09;;;;;;;9.85;8.27;;;;;;;18.32;40.64;98740.34;10216454;28;20518;-64
2022/04/23 15:54:11;;;;;;;9.43;8.52;;;;;;;18.28;40.19;98739.09;10216711;28;20059;-64
2022/04/23 15:59:12;;;;;;;9.25;8.35;;;;;;;18.32;40.63;98726.88;10218609;28;20070;-64
2022/04/23 16:04:14;;;;;;;9.20;8.40;;;;;;;18.23;40.30;98714.66;10220874;28;20097;-64
2022/04/23 16:09:15;;;;;;;9.60;8.48;;;;;;;18.22;40.25;98729.16;10208843;28;20058;-63
2022/04/23 16:14:17;;;;;;;9.60;8.70;;;;;;;18.00;40.48;98682.84;10215608;28;20338;-65
2022/04/23 16:19:38;;;;;;;8.80;7.90;;;;;;;18.02;40.78;98691.53;10214304;28;20063;-64
2022/04/23 16:24:40;;;;;;;9.07;8.18;;;;;;;18.14;40.39;98714.06;10219408;28;20054;-64
2022/04/23 16:29:42;;;;;;;9.02;8.23;;;;;;;18.14;40.52;98695.22;10214288;28;20055;-65
2022/04/23 16:34:44;;;;;;;10.50;8.25;;;;;;;18.18;40.51;98698.34;10218330;28;20594;-64
2022/04/23 16:50:26;;;;;;;9.10;8.30;;;;;;;17.95;40.99;98680.75;10220166;28;20230;-65
2022/04/23 16:55:27;;;;;;;9.30;8.40;;;;;;;17.93;41.17;98687.41;10216646;28;20174;-64
2022/04/23 17:00:29;;;;;;;9.73;8.70;;;;;;;17.88;40.96;98690.69;10215439;28;20059;-64
2022/04/23 17:05:31;;;;;;;8.05;7.35;;;;;;;17.87;41.46;98694.41;10216145;28;20059;-63
2022/04/23 17:10:33;;;;;;;8.52;7.63;;;;;;;17.77;41.47;98692.13;10212220;28;20117;-64
2022/04/23 17:15:34;;;;;;;9.20;8.30;;;;;;;17.67;41.69;98681.81;10216179;28;20055;-65
2022/04/23 17:20:36;;;;;;;9.30;8.50;;;;;;;17.53;41.85;98684.69;10225232;28;115710;-64
2022/04/23 17:25:37;;;;;;;10.25;9.30;;;;;;;17.47;42.15;98686.34;10214225;28;20241;-64
2022/04/23 17:30:39;;;;;;;10.32;9.32;;;;;;;17.38;41.93;98682.22;10216696;28;20053;-64
2022/04/23 17:35:40;;;;;;;9.23;8.43;;;;;;;17.26;42.07;98666.69;10225613;28;20047;-64
2022/04/23 17:40:42;;;;;;;8.25;7.50;;;;;;;17.22;42.04;98673.50;10220189;28;20084;-63
2022/04/23 17:45:44;;;;;;;9.07;8.20;;;;;;;17.16;42.40;98682.41;10213043;28;20050;-64
2022/04/23 17:50:46;;;;;;;8.25;6.70;;;;;;;17.01;42.48;98663.75;10219851;28;20063;-64
2022/04/23 17:55:47;;;;;;;8.38;7.57;;;;;;;17.06;42.83;98681.97;10241566;28;20066;-64
2022/04/23 18:11:29;;;;;;;6.55;5.95;;;;;;;16.74;43.12;98673.59;10216817;28;20081;-64
2022/04/23 18:16:30;;;;;;;6.15;5.65;;;;;;;16.74;43.32;98679.78;10215926;28;20121;-62
2022/04/23 18:21:32;;;;;;;6.00;5.40;;;;;;;16.63;43.66;98672.28;10219665;28;20061;-63
2022/04/23 18:26:33;;;;;;;6.07;5.57;;;;;;;16.58;43.63;98677.47;10216988;28;20057;-64
2022/04/23 18:31:34;;;;;;;5.70;5.20;;;;;;;16.41;44.24;98653.63;10214694;28;20047;-65
2022/04/23 18:36:42;;;;;;;7.03;6.43;;;;;;;16.46;44.53;98674.50;10213318;28;20051;-65
2022/04/23 18:41:44;;;;;;;7.93;6.88;;;;;;;16.38;44.45;98674.69;10214130;28;20062;-64
2022/04/23 18:46:46;;;;;;;9.30;7.28;;;;;;;16.36;44.70;98671.38;10212929;28;20059;-64
2022/04/23 18:51:48;;;;;;;7.95;7.15;;;;;;;16.28;45.04;98668.88;10209908;28;20564;-64
2022/04/23 18:56:49;;;;;;;8.52;7.70;;;;;;;16.22;45.56;98663.25;10211851;28;20529;-63
2022/04/23 19:01:52;;;;;;;7.85;6.80;;;;;;;16.24;46.16;98671.94;10216099;28;20063;-63
2022/04/23 19:06:54;;;;;;;8.25;7.45;;;;;;;16.14;45.53;98662.56;10213952;28;20051;-64
2022/04/23 19:11:56;;;;;;;8.63;7.82;;;;;;;15.90;46.01;98632.53;10213067;28;20050;-64
2022/04/23 19:16:59;;;;;;;8.70;7.80;;;;;;;16.09;46.15;98671.22;10216970;28;20057;-63
2022/04/23 19:27:32;;;;;;;10.18;9.27;;;;;;;15.92;47.93;98643.06;10216402;28;20650;-64
2022/04/23 19:32:33;;;;;;;9.75;8.85;;;;;;;15.94;47.70;98646.38;10213386;28;20043;-64
2022/04/23 19:37:35;;;;;;;9.88;8.88;;;;;;;15.85;47.68;98641.19;10213908;28;20744;-63
2022/04/23 19:42:36;;;;;;;10.73;9.30;;;;;;;15.79;48.11;98633.06;10217194;28;20178;-64
2022/04/23 19:47:38;;;;;;;10.32;9.32;;;;;;;15.73;48.28;98635.50;10215445;28;20051;-63
2022/04/23 19:52:39;;;;;;;9.73;8.57;;;;;;;15.80;48.31;98648.16;10226664;28;20077;-64
2022/04/23 19:57:42;;;;;;;9.00;8.20;;;;;;;15.77;48.47;98646.66;10224165;28;20051;-64
2022/04/23 20:02:43;;;;;;;8.75;8.00;;;;;;;15.76;48.33;98638.81;10216073;28;20051;-64
2022/04/23 20:07:46;;;;;;;9.05;8.23;;;;;;;15.68;48.80;98631.75;10219775;28;21244;-64
2022/04/23 20:12:47;;;;;;;9.15;8.35;;;;;;;15.66;48.62;98628.44;10219976;28;20051;-63
2022/04/23 20:17:48;;;;;;;8.82;8.00;;;;;;;15.62;48.75;98624.47;10220316;28;20844;-64
2022/04/23 20:22:50;;;;;;;9.52;8.52;;;;;;;15.64;48.56;98625.09;10221739;28;20148;-63
2022/04/23 20:27:51;;;;;;;10.02;9.15;;;;;;;15.61;48.44;98630.84;10225243;28;20057;-62
2022/04/23 20:32:52;;;;;;;9.52;8.63;;;;;;;15.58;48.66;98631.25;10222731;28;20616;-63
2022/04/23 20:38:08;;;;;;;9.82;8.88;;;;;;;15.48;49.03;98629.75;10219847;28;20065;-63
2022/04/23 20:43:10;;;;;;;9.13;8.32;;;;;;;15.53;49.62;98621.94;10220269;28;20771;-63
2022/04/23 20:48:12;;;;;;;8.88;7.97;;;;;;;15.39;49.46;98606.78;10214025;28;20058;-65
2022/04/23 20:53:16;;;;;;;9.38;8.52;;;;;;;15.41;49.56;98618.13;10215708;28;20059;-64
2022/04/23 20:58:18;;;;;;;8.68;7.88;;;;;;;15.38;49.36;98615.84;10218398;28;20137;-64
2022/04/23 21:03:21;;;;;;;8.48;7.68;;;;;;;15.38;49.40;98615.84;10218174;28;20104;-66
2022/04/23 21:08:34;;;;;;;8.35;7.55;;;;;;;15.36;49.27;98604.50;10218239;28;20043;-63
2022/04/23 21:13:38;;;;;;;7.85;7.15;;;;;;;15.29;49.24;98590.22;10215026;28;20053;-66
2022/04/23 21:18:40;;;;;;;;;;;;;;;15.39;49.14;98590.72;10219680;28;20055;-64
2022/04/23 21:23:42;;;;;;;9.02;8.13;;;;;;;15.36;49.59;98591.09;10212297;28;19930;-65
2022/04/23 21:28:44;;;;;;;9.95;8.95;;;;;;;15.32;49.49;98589.81;10216234;28;21049;-66
2022/04/23 21:33:45;;;;;;;9.57;8.68;;;;;;;15.23;49.89;98569.56;10216716;28;20061;-64
2022/04/23 21:38:46;;;;;;;9.57;8.70;;;;;;;15.16;49.57;98575.69;10214673;28;20102;-65
2022/04/23 21:49:08;;;;;;;7.70;7.00;;;;;;;15.17;48.66;98576.50;10211158;28;22689;-65
2022/04/23 21:54:09;;;;;;;8.25;7.50;;;;;;;15.19;49.05;98580.66;10214305;28;20050;-66
2022/04/23 21:59:10;;;;;;;7.45;6.68;;;;;;;15.12;48.80;98566.38;10207814;28;20049;-64
2022/04/23 22:04:12;;;;;;;7.60;7.00;;;;;;;15.09;47.71;98569.44;10207991;28;20600;-64
2022/04/23 22:09:13;;;;;;;6.38;5.88;;;;;;;15.05;48.20;98567.34;10209231;28;20051;-64
2022/04/23 22:14:14;;;;;;;5.55;5.15;;;;;;;15.03;46.98;98559.50;10228969;28;20421;-64
2022/04/23 22:19:16;;;;;;;6.85;6.15;;;;;;;14.91;47.38;98539.63;10237081;28;20407;-64
2022/04/23 22:24:17;;;;;;;5.72;5.15;;;;;;;14.79;46.23;98525.91;10234856;28;20134;-64
2022/04/23 22:29:19;;;;;;;8.02;6.25;;;;;;;14.73;46.35;98530.19;10231763;28;20135;-65
2022/04/23 22:34:21;;;;;;;4.40;4.00;;;;;;;14.70;45.79;98527.06;10231840;28;20178;-65
2022/04/23 22:39:22;;;;;;;4.50;4.18;;;;;;;14.65;45.90;98511.56;10231805;28;20139;-65
2022/04/23 22:44:24;;;;;;;6.20;5.60;;;;;;;14.52;46.71;98498.88;10230401;28;20134;-64
2022/04/23 22:49:27;;;;;;;9.40;8.52;;;;;;;14.52;46.47;98514.09;10232103;28;20050;-65
2022/04/23 22:54:28;;;;;;;21.17;18.95;;;;;;;14.31;46.74;98497.84;10233108;28;20166;-65
2022/04/23 22:59:29;;;;;;;9.90;9.00;;;;;;;14.30;47.00;98484.66;10229099;28;20163;-65
2022/04/23 23:04:31;;;;;;;6.72;5.68;;;;;;;14.25;46.93;98497.78;10235216;28;20055;-66
2022/04/23 23:09:32;;;;;;;5.05;4.65;;;;;;;14.03;47.05;98484.38;10231617;28;20134;-66
2022/04/23 23:14:34;;;;;;;4.85;4.45;;;;;;;13.89;47.15;98482.59;10231483;28;20082;-64
2022/04/23 23:19:35;;;;;;;4.50;4.07;;;;;;;13.79;47.09;98496.22;10234479;28;20138;-65
2022/04/23 23:24:37;;;;;;;4.63;4.15;;;;;;;13.58;46.72;98484.44;10235081;28;20186;-65
2022/04/23 23:29:39;;;;;;;4.50;4.03;;;;;;;13.59;47.11;98488.78;10240902;28;20051;-65
2022/04/23 23:34:40;;;;;;;51.03;44.15;;;;;;;13.58;47.26;98492.47;10237263;28;20050;-65
2022/04/23 23:39:42;;;;;;;10.32;9.32;;;;;;;13.40;48.36;98473.31;10235665;28;20053;-65
2022/04/23 23:44:43;;;;;;;5.82;4.18;;;;;;;13.47;47.53;98478.78;10234538;28;20065;-65
2022/04/23 23:49:45;;;;;;;7.93;5.30;;;;;;;13.42;47.66;98482.81;10237041;28;20050;-63
2022/04/23 23:54:46;;;;;;;6.32;5.28;;;;;;;13.32;48.61;98466.22;10240287;28;20214;-63
2022/04/23 23:59:48;;;;;;;3.80;3.50;;;;;;;13.31;47.49;98464.53;10235612;28;20070;-64
